Terminal Aerodrome Forecast
Issued by NWS

Home | Current Version | Previous Version | Text Only | Print | Product List | Glossary On
Versions: 1 2 3 4 5 6 7 8 9 10 11 12 13 14 15 16 17 18 19
595
FTUS42 KMLB 070544
TAFSFB
TAF
KSFB 070544Z 0706/0806 31014KT P6SM -RA OVC006
     FM070900 31015G20KT P6SM BKN008 OVC010
     FM071500 31018G25KT P6SM BKN015
     FM071700 31020G28KT P6SM SCT025
     FM080000 30012KT P6SM SKC=

USA.gov is the U.S. government's official web portal to all federal, state and local government web resources and services.